sensor_id;sensor_type;location;lat;lon;timestamp;temperature;humidity
9790;DHT22;4934;50.852;8.098;2023-04-28T00:01:41;9.40;99.90
9790;DHT22;4934;50.852;8.098;2023-04-28T00:04:07;9.40;99.90
9790;DHT22;4934;50.852;8.098;2023-04-28T00:06:33;9.30;99.90
9790;DHT22;4934;50.852;8.098;2023-04-28T00:08:58;9.30;99.90
9790;DHT22;4934;50.852;8.098;2023-04-28T00:11:24;9.40;99.90
9790;DHT22;4934;50.852;8.098;2023-04-28T00:13:50;9.30;99.90
9790;DHT22;4934;50.852;8.098;2023-04-28T00:16:16;9.30;99.90
9790;DHT22;4934;50.852;8.098;2023-04-28T00:18:41;9.40;99.90
9790;DHT22;4934;50.852;8.098;2023-04-28T00:21:07;9.40;99.90
9790;DHT22;4934;50.852;8.098;2023-04-28T00:23:33;9.40;99.90
9790;DHT22;4934;50.852;8.098;2023-04-28T00:25:58;9.40;99.90
9790;DHT22;4934;50.852;8.098;2023-04-28T00:28:24;9.40;99.90
9790;DHT22;4934;50.852;8.098;2023-04-28T00:30:49;9.30;99.90
9790;DHT22;4934;50.852;8.098;2023-04-28T00:33:15;9.30;99.90
9790;DHT22;4934;50.852;8.098;2023-04-28T00:35:41;9.30;99.90
9790;DHT22;4934;50.852;8.098;2023-04-28T00:38:07;9.20;99.90
9790;DHT22;4934;50.852;8.098;2023-04-28T00:40:37;9.20;99.90
9790;DHT22;4934;50.852;8.098;2023-04-28T00:43:03;9.30;99.90
9790;DHT22;4934;50.852;8.098;2023-04-28T00:45:29;9.20;99.90
9790;DHT22;4934;50.852;8.098;2023-04-28T00:47:55;9.10;99.90
9790;DHT22;4934;50.852;8.098;2023-04-28T00:50:22;9.00;99.90
9790;DHT22;4934;50.852;8.098;2023-04-28T00:52:48;9.00;99.90
9790;DHT22;4934;50.852;8.098;2023-04-28T00:55:15;9.00;99.90
9790;DHT22;4934;50.852;8.098;2023-04-28T00:57:41;8.90;99.90
9790;DHT22;4934;50.852;8.098;2023-04-28T01:00:07;9.00;99.90
9790;DHT22;4934;50.852;8.098;2023-04-28T01:02:35;8.90;99.90
9790;DHT22;4934;50.852;8.098;2023-04-28T01:05:01;9.00;99.90
9790;DHT22;4934;50.852;8.098;2023-04-28T01:07:27;8.90;99.90
9790;DHT22;4934;50.852;8.098;2023-04-28T01:09:53;9.00;99.90
9790;DHT22;4934;50.852;8.098;2023-04-28T01:12:19;8.90;99.90
9790;DHT22;4934;50.852;8.098;2023-04-28T01:14:45;8.90;99.90
9790;DHT22;4934;50.852;8.098;2023-04-28T01:17:10;8.90;99.90
9790;DHT22;4934;50.852;8.098;2023-04-28T01:19:37;8.90;99.90
9790;DHT22;4934;50.852;8.098;2023-04-28T01:22:02;8.80;99.90
9790;DHT22;4934;50.852;8.098;2023-04-28T01:24:29;8.80;99.90
9790;DHT22;4934;50.852;8.098;2023-04-28T01:26:55;8.80;99.90
9790;DHT22;4934;50.852;8.098;2023-04-28T01:29:20;8.80;99.90
9790;DHT22;4934;50.852;8.098;2023-04-28T01:31:46;8.70;99.90
9790;DHT22;4934;50.852;8.098;2023-04-28T01:34:12;8.70;99.90
9790;DHT22;4934;50.852;8.098;2023-04-28T01:36:37;8.60;99.90
9790;DHT22;4934;50.852;8.098;2023-04-28T01:39:03;8.60;99.90
9790;DHT22;4934;50.852;8.098;2023-04-28T01:41:29;8.60;99.90
9790;DHT22;4934;50.852;8.098;2023-04-28T01:43:55;8.60;99.90
9790;DHT22;4934;50.852;8.098;2023-04-28T01:46:20;8.50;99.90
9790;DHT22;4934;50.852;8.098;2023-04-28T01:48:46;8.50;99.90
9790;DHT22;4934;50.852;8.098;2023-04-28T01:51:12;8.40;99.90
9790;DHT22;4934;50.852;8.098;2023-04-28T01:53:37;8.40;99.90
9790;DHT22;4934;50.852;8.098;2023-04-28T01:56:04;8.40;99.90
9790;DHT22;4934;50.852;8.098;2023-04-28T01:58:30;8.30;99.90
9790;DHT22;4934;50.852;8.098;2023-04-28T02:00:55;8.30;99.90
9790;DHT22;4934;50.852;8.098;2023-04-28T02:03:21;8.30;99.90
9790;DHT22;4934;50.852;8.098;2023-04-28T02:05:47;8.30;99.90
9790;DHT22;4934;50.852;8.098;2023-04-28T02:08:12;8.50;99.90
9790;DHT22;4934;50.852;8.098;2023-04-28T02:10:38;8.60;99.90
9790;DHT22;4934;50.852;8.098;2023-04-28T02:13:03;8.40;99.90
9790;DHT22;4934;50.852;8.098;2023-04-28T02:15:29;8.30;99.90
9790;DHT22;4934;50.852;8.098;2023-04-28T02:17:55;8.40;99.90
9790;DHT22;4934;50.852;8.098;2023-04-28T02:20:20;8.40;99.90
9790;DHT22;4934;50.852;8.098;2023-04-28T02:22:46;8.30;99.90
9790;DHT22;4934;50.852;8.098;2023-04-28T02:25:12;8.20;99.90
9790;DHT22;4934;50.852;8.098;2023-04-28T02:27:37;8.20;99.90
9790;DHT22;4934;50.852;8.098;2023-04-28T02:30:04;8.20;99.90
9790;DHT22;4934;50.852;8.098;2023-04-28T02:32:30;8.10;99.90
9790;DHT22;4934;50.852;8.098;2023-04-28T02:34:56;8.10;99.90
9790;DHT22;4934;50.852;8.098;2023-04-28T02:37:21;8.20;99.90
9790;DHT22;4934;50.852;8.098;2023-04-28T02:39:47;8.20;99.90
9790;DHT22;4934;50.852;8.098;2023-04-28T02:42:12;8.20;99.90
9790;DHT22;4934;50.852;8.098;2023-04-28T02:44:39;8.10;99.90
9790;DHT22;4934;50.852;8.098;2023-04-28T02:47:05;8.00;99.90
9790;DHT22;4934;50.852;8.098;2023-04-28T02:49:32;8.00;99.90
9790;DHT22;4934;50.852;8.098;2023-04-28T02:51:57;8.10;99.90
9790;DHT22;4934;50.852;8.098;2023-04-28T02:54:23;8.00;99.90
9790;DHT22;4934;50.852;8.098;2023-04-28T02:56:55;8.00;99.90
9790;DHT22;4934;50.852;8.098;2023-04-28T02:59:22;8.00;99.90
9790;DHT22;4934;50.852;8.098;2023-04-28T03:01:48;8.00;99.90
9790;DHT22;4934;50.852;8.098;2023-04-28T03:04:15;8.10;99.90
9790;DHT22;4934;50.852;8.098;2023-04-28T03:06:41;8.00;99.90
9790;DHT22;4934;50.852;8.098;2023-04-28T03:09:07;8.00;99.90
9790;DHT22;4934;50.852;8.098;2023-04-28T03:11:33;8.00;99.90
9790;DHT22;4934;50.852;8.098;2023-04-28T03:13:58;7.90;99.90
9790;DHT22;4934;50.852;8.098;2023-04-28T03:16:24;7.80;99.90
9790;DHT22;4934;50.852;8.098;2023-04-28T03:18:50;7.80;99.90
9790;DHT22;4934;50.852;8.098;2023-04-28T03:21:16;7.80;99.90
9790;DHT22;4934;50.852;8.098;2023-04-28T03:23:41;7.80;99.90
9790;DHT22;4934;50.852;8.098;2023-04-28T03:26:07;7.80;99.90
9790;DHT22;4934;50.852;8.098;2023-04-28T03:28:32;7.90;99.90
9790;DHT22;4934;50.852;8.098;2023-04-28T03:30:58;7.90;99.90
9790;DHT22;4934;50.852;8.098;2023-04-28T03:33:24;7.90;99.90
9790;DHT22;4934;50.852;8.098;2023-04-28T03:35:50;8.00;99.90
9790;DHT22;4934;50.852;8.098;2023-04-28T03:38:15;7.90;99.90
9790;DHT22;4934;50.852;8.098;2023-04-28T03:40:41;7.90;99.90
9790;DHT22;4934;50.852;8.098;2023-04-28T03:43:06;7.80;99.90
9790;DHT22;4934;50.852;8.098;2023-04-28T03:45:32;7.90;99.90
9790;DHT22;4934;50.852;8.098;2023-04-28T03:47:58;7.90;99.90
9790;DHT22;4934;50.852;8.098;2023-04-28T03:50:23;7.80;99.90
9790;DHT22;4934;50.852;8.098;2023-04-28T03:52:49;7.80;99.90
9790;DHT22;4934;50.852;8.098;2023-04-28T03:55:15;7.90;99.90
9790;DHT22;4934;50.852;8.098;2023-04-28T03:57:41;7.90;99.90
9790;DHT22;4934;50.852;8.098;2023-04-28T04:00:07;7.80;99.90
9790;DHT22;4934;50.852;8.098;2023-04-28T04:02:33;7.80;99.90
9790;DHT22;4934;50.852;8.098;2023-04-28T04:04:58;7.90;99.90
9790;DHT22;4934;50.852;8.098;2023-04-28T04:07:24;7.90;99.90
9790;DHT22;4934;50.852;8.098;2023-04-28T04:09:49;7.90;99.90
9790;DHT22;4934;50.852;8.098;2023-04-28T04:12:15;7.90;99.90
9790;DHT22;4934;50.852;8.098;2023-04-28T04:14:40;7.90;99.90
9790;DHT22;4934;50.852;8.098;2023-04-28T04:17:06;7.90;99.90
9790;DHT22;4934;50.852;8.098;2023-04-28T04:19:32;7.90;99.90
9790;DHT22;4934;50.852;8.098;2023-04-28T04:21:57;7.90;99.90
9790;DHT22;4934;50.852;8.098;2023-04-28T04:24:23;7.90;99.90
9790;DHT22;4934;50.852;8.098;2023-04-28T04:26:48;7.90;99.90
9790;DHT22;4934;50.852;8.098;2023-04-28T04:29:14;7.90;99.90
9790;DHT22;4934;50.852;8.098;2023-04-28T04:31:40;7.80;99.90
9790;DHT22;4934;50.852;8.098;2023-04-28T04:34:05;7.90;99.90
9790;DHT22;4934;50.852;8.098;2023-04-28T04:36:31;7.90;99.90
9790;DHT22;4934;50.852;8.098;2023-04-28T04:38:57;7.90;99.90
9790;DHT22;4934;50.852;8.098;2023-04-28T04:41:25;8.00;99.90
9790;DHT22;4934;50.852;8.098;2023-04-28T04:43:51;8.00;99.90
9790;DHT22;4934;50.852;8.098;2023-04-28T04:46:17;7.90;99.90
9790;DHT22;4934;50.852;8.098;2023-04-28T04:48:42;7.90;99.90
9790;DHT22;4934;50.852;8.098;2023-04-28T04:51:08;7.90;99.90
9790;DHT22;4934;50.852;8.098;2023-04-28T04:53:34;7.90;99.90
9790;DHT22;4934;50.852;8.098;2023-04-28T04:56:00;7.90;99.90
9790;DHT22;4934;50.852;8.098;2023-04-28T04:58:26;7.90;99.90
9790;DHT22;4934;50.852;8.098;2023-04-28T05:00:51;7.90;99.90
9790;DHT22;4934;50.852;8.098;2023-04-28T05:03:17;7.90;99.90
9790;DHT22;4934;50.852;8.098;2023-04-28T05:05:42;7.90;99.90
9790;DHT22;4934;50.852;8.098;2023-04-28T05:08:10;7.80;99.90
9790;DHT22;4934;50.852;8.098;2023-04-28T05:10:36;8.00;99.90
9790;DHT22;4934;50.852;8.098;2023-04-28T05:13:01;8.10;99.90
9790;DHT22;4934;50.852;8.098;2023-04-28T05:15:27;8.20;99.90
9790;DHT22;4934;50.852;8.098;2023-04-28T05:17:53;8.20;99.90
9790;DHT22;4934;50.852;8.098;2023-04-28T05:20:19;8.10;99.90
9790;DHT22;4934;50.852;8.098;2023-04-28T05:22:44;8.10;99.90
9790;DHT22;4934;50.852;8.098;2023-04-28T05:25:10;8.10;99.90
9790;DHT22;4934;50.852;8.098;2023-04-28T05:27:36;8.10;99.90
9790;DHT22;4934;50.852;8.098;2023-04-28T05:30:05;8.00;99.90
9790;DHT22;4934;50.852;8.098;2023-04-28T05:32:30;8.00;99.90
9790;DHT22;4934;50.852;8.098;2023-04-28T05:34:56;8.00;99.90
9790;DHT22;4934;50.852;8.098;2023-04-28T05:37:22;8.00;99.90
9790;DHT22;4934;50.852;8.098;2023-04-28T05:39:47;8.00;99.90
9790;DHT22;4934;50.852;8.098;2023-04-28T05:42:13;8.10;99.90
9790;DHT22;4934;50.852;8.098;2023-04-28T05:44:38;8.10;99.90
9790;DHT22;4934;50.852;8.098;2023-04-28T05:47:04;8.10;99.90
9790;DHT22;4934;50.852;8.098;2023-04-28T05:49:29;8.10;99.90
9790;DHT22;4934;50.852;8.098;2023-04-28T05:51:55;8.00;99.90
9790;DHT22;4934;50.852;8.098;2023-04-28T05:54:21;8.10;99.90
9790;DHT22;4934;50.852;8.098;2023-04-28T05:56:46;8.20;99.90
9790;DHT22;4934;50.852;8.098;2023-04-28T05:59:12;8.10;99.90
9790;DHT22;4934;50.852;8.098;2023-04-28T06:01:37;8.20;99.90
9790;DHT22;4934;50.852;8.098;2023-04-28T06:04:03;8.20;99.90
9790;DHT22;4934;50.852;8.098;2023-04-28T06:06:29;8.30;99.90
9790;DHT22;4934;50.852;8.098;2023-04-28T06:08:54;8.40;99.90
9790;DHT22;4934;50.852;8.098;2023-04-28T06:11:20;8.40;99.90
9790;DHT22;4934;50.852;8.098;2023-04-28T06:13:47;8.40;99.90
9790;DHT22;4934;50.852;8.098;2023-04-28T06:16:14;8.30;99.90
9790;DHT22;4934;50.852;8.098;2023-04-28T06:18:40;8.40;99.90
9790;DHT22;4934;50.852;8.098;2023-04-28T06:21:05;8.30;99.90
9790;DHT22;4934;50.852;8.098;2023-04-28T06:23:31;8.40;99.90
9790;DHT22;4934;50.852;8.098;2023-04-28T06:25:57;8.40;99.90
9790;DHT22;4934;50.852;8.098;2023-04-28T06:28:22;8.40;99.90
9790;DHT22;4934;50.852;8.098;2023-04-28T06:30:48;8.40;99.90
9790;DHT22;4934;50.852;8.098;2023-04-28T06:33:13;8.50;99.90
9790;DHT22;4934;50.852;8.098;2023-04-28T06:35:39;8.60;99.90
9790;DHT22;4934;50.852;8.098;2023-04-28T06:38:05;8.60;99.90
9790;DHT22;4934;50.852;8.098;2023-04-28T06:40:31;8.70;99.90
9790;DHT22;4934;50.852;8.098;2023-04-28T06:42:56;8.70;99.90
9790;DHT22;4934;50.852;8.098;2023-04-28T06:45:22;8.80;99.90
9790;DHT22;4934;50.852;8.098;2023-04-28T06:47:47;8.80;99.90
9790;DHT22;4934;50.852;8.098;2023-04-28T06:50:13;8.80;99.90
9790;DHT22;4934;50.852;8.098;2023-04-28T06:52:38;8.80;99.90
9790;DHT22;4934;50.852;8.098;2023-04-28T06:55:07;8.60;99.90
9790;DHT22;4934;50.852;8.098;2023-04-28T06:57:34;8.70;99.90
9790;DHT22;4934;50.852;8.098;2023-04-28T06:59:59;8.70;99.90
9790;DHT22;4934;50.852;8.098;2023-04-28T07:02:25;8.80;99.90
9790;DHT22;4934;50.852;8.098;2023-04-28T07:04:51;8.80;99.90
9790;DHT22;4934;50.852;8.098;2023-04-28T07:07:17;9.00;99.90
9790;DHT22;4934;50.852;8.098;2023-04-28T07:09:42;9.10;99.90
9790;DHT22;4934;50.852;8.098;2023-04-28T07:12:08;9.10;99.90
9790;DHT22;4934;50.852;8.098;2023-04-28T07:14:33;9.10;99.90
9790;DHT22;4934;50.852;8.098;2023-04-28T07:16:59;9.00;99.90
9790;DHT22;4934;50.852;8.098;2023-04-28T07:19:25;9.00;99.90
9790;DHT22;4934;50.852;8.098;2023-04-28T07:21:50;9.10;99.90
9790;DHT22;4934;50.852;8.098;2023-04-28T07:24:16;9.10;99.90
9790;DHT22;4934;50.852;8.098;2023-04-28T07:26:42;9.10;99.90
9790;DHT22;4934;50.852;8.098;2023-04-28T07:29:07;9.10;99.90
9790;DHT22;4934;50.852;8.098;2023-04-28T07:31:33;9.20;99.90
9790;DHT22;4934;50.852;8.098;2023-04-28T07:33:59;9.30;99.90
9790;DHT22;4934;50.852;8.098;2023-04-28T07:36:25;9.30;99.90
9790;DHT22;4934;50.852;8.098;2023-04-28T07:38:51;9.40;99.90
9790;DHT22;4934;50.852;8.098;2023-04-28T07:41:17;9.30;99.90
9790;DHT22;4934;50.852;8.098;2023-04-28T07:43:43;9.10;99.90
9790;DHT22;4934;50.852;8.098;2023-04-28T07:46:09;9.10;99.90
9790;DHT22;4934;50.852;8.098;2023-04-28T07:48:35;9.20;99.90
9790;DHT22;4934;50.852;8.098;2023-04-28T07:51:01;9.30;99.90
9790;DHT22;4934;50.852;8.098;2023-04-28T07:53:26;9.30;99.90
9790;DHT22;4934;50.852;8.098;2023-04-28T07:55:53;9.40;99.90
9790;DHT22;4934;50.852;8.098;2023-04-28T07:58:19;9.40;99.90
9790;DHT22;4934;50.852;8.098;2023-04-28T08:00:44;9.40;99.90
9790;DHT22;4934;50.852;8.098;2023-04-28T08:03:10;9.40;99.90
9790;DHT22;4934;50.852;8.098;2023-04-28T08:05:37;9.40;99.90
9790;DHT22;4934;50.852;8.098;2023-04-28T08:08:03;9.40;99.90
9790;DHT22;4934;50.852;8.098;2023-04-28T08:10:29;9.40;99.90
9790;DHT22;4934;50.852;8.098;2023-04-28T08:12:54;9.50;99.90
9790;DHT22;4934;50.852;8.098;2023-04-28T08:15:20;9.60;99.90
9790;DHT22;4934;50.852;8.098;2023-04-28T08:17:45;9.60;99.90
9790;DHT22;4934;50.852;8.098;2023-04-28T08:20:11;9.60;99.90
9790;DHT22;4934;50.852;8.098;2023-04-28T08:22:39;9.70;99.90
9790;DHT22;4934;50.852;8.098;2023-04-28T08:25:06;9.70;99.90
9790;DHT22;4934;50.852;8.098;2023-04-28T08:27:32;9.80;99.90
9790;DHT22;4934;50.852;8.098;2023-04-28T08:29:58;10.00;99.90
9790;DHT22;4934;50.852;8.098;2023-04-28T08:32:24;10.00;99.90
9790;DHT22;4934;50.852;8.098;2023-04-28T08:34:50;10.00;99.90
9790;DHT22;4934;50.852;8.098;2023-04-28T08:37:16;10.10;99.90
9790;DHT22;4934;50.852;8.098;2023-04-28T08:39:41;10.20;99.90
9790;DHT22;4934;50.852;8.098;2023-04-28T08:42:07;10.30;99.90
9790;DHT22;4934;50.852;8.098;2023-04-28T08:44:36;10.40;99.90
9790;DHT22;4934;50.852;8.098;2023-04-28T08:47:12;10.40;99.90
9790;DHT22;4934;50.852;8.098;2023-04-28T08:49:39;10.40;99.90
9790;DHT22;4934;50.852;8.098;2023-04-28T08:52:15;10.40;99.90
9790;DHT22;4934;50.852;8.098;2023-04-28T08:54:42;10.50;99.90
9790;DHT22;4934;50.852;8.098;2023-04-28T08:57:09;10.50;99.90
9790;DHT22;4934;50.852;8.098;2023-04-28T08:59:38;10.60;99.90
9790;DHT22;4934;50.852;8.098;2023-04-28T09:02:04;10.60;99.90
9790;DHT22;4934;50.852;8.098;2023-04-28T09:04:30;10.80;99.90
9790;DHT22;4934;50.852;8.098;2023-04-28T09:06:56;10.90;99.90
9790;DHT22;4934;50.852;8.098;2023-04-28T09:09:26;10.90;99.90
9790;DHT22;4934;50.852;8.098;2023-04-28T09:12:00;11.00;99.90
9790;DHT22;4934;50.852;8.098;2023-04-28T09:14:31;11.10;99.90
9790;DHT22;4934;50.852;8.098;2023-04-28T09:17:00;11.20;99.90
9790;DHT22;4934;50.852;8.098;2023-04-28T09:19:34;11.30;99.90
9790;DHT22;4934;50.852;8.098;2023-04-28T09:22:00;11.60;99.90
9790;DHT22;4934;50.852;8.098;2023-04-28T09:24:33;11.80;99.90
9790;DHT22;4934;50.852;8.098;2023-04-28T09:27:00;12.00;99.90
9790;DHT22;4934;50.852;8.098;2023-04-28T09:29:27;12.20;99.90
9790;DHT22;4934;50.852;8.098;2023-04-28T09:31:54;12.20;99.90
9790;DHT22;4934;50.852;8.098;2023-04-28T09:34:20;12.50;99.90
9790;DHT22;4934;50.852;8.098;2023-04-28T09:36:46;12.70;99.90
9790;DHT22;4934;50.852;8.098;2023-04-28T09:39:12;12.60;99.90
9790;DHT22;4934;50.852;8.098;2023-04-28T09:41:39;12.80;99.90
9790;DHT22;4934;50.852;8.098;2023-04-28T09:44:18;12.80;99.90
9790;DHT22;4934;50.852;8.098;2023-04-28T09:46:46;12.80;99.90
9790;DHT22;4934;50.852;8.098;2023-04-28T09:49:13;13.00;99.90
9790;DHT22;4934;50.852;8.098;2023-04-28T09:51:39;13.30;99.90
9790;DHT22;4934;50.852;8.098;2023-04-28T09:54:06;13.50;99.90
9790;DHT22;4934;50.852;8.098;2023-04-28T09:56:33;13.70;99.90
9790;DHT22;4934;50.852;8.098;2023-04-28T09:59:00;13.80;99.90
9790;DHT22;4934;50.852;8.098;2023-04-28T10:01:40;13.60;99.90
9790;DHT22;4934;50.852;8.098;2023-04-28T10:04:07;13.70;99.90
9790;DHT22;4934;50.852;8.098;2023-04-28T10:06:33;13.70;99.90
9790;DHT22;4934;50.852;8.098;2023-04-28T10:09:02;13.80;99.90
9790;DHT22;4934;50.852;8.098;2023-04-28T10:11:28;13.90;99.90
9790;DHT22;4934;50.852;8.098;2023-04-28T10:13:55;14.10;99.90
9790;DHT22;4934;50.852;8.098;2023-04-28T10:16:21;14.20;99.90
9790;DHT22;4934;50.852;8.098;2023-04-28T10:18:47;14.40;99.90
9790;DHT22;4934;50.852;8.098;2023-04-28T10:21:17;14.60;99.90
9790;DHT22;4934;50.852;8.098;2023-04-28T10:23:59;14.90;99.90
9790;DHT22;4934;50.852;8.098;2023-04-28T10:27:04;14.90;99.90
9790;DHT22;4934;50.852;8.098;2023-04-28T10:29:33;14.80;99.90
9790;DHT22;4934;50.852;8.098;2023-04-28T10:32:19;14.90;99.90
9790;DHT22;4934;50.852;8.098;2023-04-28T10:34:46;14.80;99.90
9790;DHT22;4934;50.852;8.098;2023-04-28T10:37:12;14.80;99.90
9790;DHT22;4934;50.852;8.098;2023-04-28T10:42:54;14.10;99.90
9790;DHT22;4934;50.852;8.098;2023-04-28T10:56:22;14.00;99.90
9790;DHT22;4934;50.852;8.098;2023-04-28T10:58:53;14.10;99.90
9790;DHT22;4934;50.852;8.098;2023-04-28T11:08:49;14.50;99.90
9790;DHT22;4934;50.852;8.098;2023-04-28T11:11:16;14.50;99.90
9790;DHT22;4934;50.852;8.098;2023-04-28T11:13:43;14.70;99.90
9790;DHT22;4934;50.852;8.098;2023-04-28T11:16:13;14.90;99.90
9790;DHT22;4934;50.852;8.098;2023-04-28T11:18:54;14.90;99.90
9790;DHT22;4934;50.852;8.098;2023-04-28T11:21:21;15.00;99.90
9790;DHT22;4934;50.852;8.098;2023-04-28T11:23:47;15.00;99.90
9790;DHT22;4934;50.852;8.098;2023-04-28T11:26:13;15.00;99.90
9790;DHT22;4934;50.852;8.098;2023-04-28T11:28:53;15.00;99.90
9790;DHT22;4934;50.852;8.098;2023-04-28T11:31:20;14.90;99.90
9790;DHT22;4934;50.852;8.098;2023-04-28T11:36:27;14.90;99.90
9790;DHT22;4934;50.852;8.098;2023-04-28T11:38:54;15.20;99.90
9790;DHT22;4934;50.852;8.098;2023-04-28T11:41:20;15.30;99.90
9790;DHT22;4934;50.852;8.098;2023-04-28T11:43:46;15.20;99.90
9790;DHT22;4934;50.852;8.098;2023-04-28T11:46:23;14.80;99.90
9790;DHT22;4934;50.852;8.098;2023-04-28T11:49:04;15.00;99.90
9790;DHT22;4934;50.852;8.098;2023-04-28T11:51:35;15.20;99.90
9790;DHT22;4934;50.852;8.098;2023-04-28T11:54:02;15.60;99.90
9790;DHT22;4934;50.852;8.098;2023-04-28T11:56:29;16.10;99.90
9790;DHT22;4934;50.852;8.098;2023-04-28T11:59:02;16.40;99.90
9790;DHT22;4934;50.852;8.098;2023-04-28T12:01:29;16.60;99.90
9790;DHT22;4934;50.852;8.098;2023-04-28T12:03:55;16.80;99.90
9790;DHT22;4934;50.852;8.098;2023-04-28T12:06:21;16.80;99.90
9790;DHT22;4934;50.852;8.098;2023-04-28T12:08:47;16.80;99.90
9790;DHT22;4934;50.852;8.098;2023-04-28T12:11:13;16.70;99.90
9790;DHT22;4934;50.852;8.098;2023-04-28T12:13:40;16.50;99.90
9790;DHT22;4934;50.852;8.098;2023-04-28T12:16:07;16.10;99.90
9790;DHT22;4934;50.852;8.098;2023-04-28T12:18:36;15.40;99.90
9790;DHT22;4934;50.852;8.098;2023-04-28T12:21:03;15.40;99.90
9790;DHT22;4934;50.852;8.098;2023-04-28T12:23:30;15.40;99.90
9790;DHT22;4934;50.852;8.098;2023-04-28T12:25:56;15.50;99.90
9790;DHT22;4934;50.852;8.098;2023-04-28T12:28:23;15.40;99.90
9790;DHT22;4934;50.852;8.098;2023-04-28T12:31:01;15.50;99.90
9790;DHT22;4934;50.852;8.098;2023-04-28T12:33:27;15.40;99.90
9790;DHT22;4934;50.852;8.098;2023-04-28T12:35:55;15.30;99.90
9790;DHT22;4934;50.852;8.098;2023-04-28T12:38:22;14.80;99.90
9790;DHT22;4934;50.852;8.098;2023-04-28T12:40:47;14.80;99.90
9790;DHT22;4934;50.852;8.098;2023-04-28T12:43:13;14.70;99.90
9790;DHT22;4934;50.852;8.098;2023-04-28T12:45:40;14.40;99.90
9790;DHT22;4934;50.852;8.098;2023-04-28T12:48:06;14.40;99.90
9790;DHT22;4934;50.852;8.098;2023-04-28T12:50:32;14.60;99.90
9790;DHT22;4934;50.852;8.098;2023-04-28T12:52:58;14.80;99.90
9790;DHT22;4934;50.852;8.098;2023-04-28T12:55:24;14.90;99.90
9790;DHT22;4934;50.852;8.098;2023-04-28T12:57:50;14.90;99.90
9790;DHT22;4934;50.852;8.098;2023-04-28T13:00:16;14.80;99.90
9790;DHT22;4934;50.852;8.098;2023-04-28T13:02:45;14.90;99.90
9790;DHT22;4934;50.852;8.098;2023-04-28T13:05:11;15.00;99.90
9790;DHT22;4934;50.852;8.098;2023-04-28T13:07:37;15.00;99.90
9790;DHT22;4934;50.852;8.098;2023-04-28T13:10:02;15.10;99.90
9790;DHT22;4934;50.852;8.098;2023-04-28T13:12:28;15.30;99.90
9790;DHT22;4934;50.852;8.098;2023-04-28T13:14:53;15.50;99.90
9790;DHT22;4934;50.852;8.098;2023-04-28T13:17:19;15.80;99.90
9790;DHT22;4934;50.852;8.098;2023-04-28T13:19:45;15.90;99.90
9790;DHT22;4934;50.852;8.098;2023-04-28T13:22:10;15.90;99.90
9790;DHT22;4934;50.852;8.098;2023-04-28T13:24:36;15.90;99.90
9790;DHT22;4934;50.852;8.098;2023-04-28T13:27:02;16.00;99.90
9790;DHT22;4934;50.852;8.098;2023-04-28T13:29:28;15.80;99.90
9790;DHT22;4934;50.852;8.098;2023-04-28T13:31:54;15.80;99.90
9790;DHT22;4934;50.852;8.098;2023-04-28T13:34:20;16.00;99.90
9790;DHT22;4934;50.852;8.098;2023-04-28T13:36:45;16.00;99.90
9790;DHT22;4934;50.852;8.098;2023-04-28T13:39:12;15.80;99.90
9790;DHT22;4934;50.852;8.098;2023-04-28T13:41:39;15.70;99.90
9790;DHT22;4934;50.852;8.098;2023-04-28T13:44:04;15.80;99.90
9790;DHT22;4934;50.852;8.098;2023-04-28T13:46:30;15.70;99.90
9790;DHT22;4934;50.852;8.098;2023-04-28T13:48:56;15.90;99.90
9790;DHT22;4934;50.852;8.098;2023-04-28T13:51:22;16.20;99.90
9790;DHT22;4934;50.852;8.098;2023-04-28T13:53:48;16.30;99.90
9790;DHT22;4934;50.852;8.098;2023-04-28T13:56:14;16.70;99.90
9790;DHT22;4934;50.852;8.098;2023-04-28T13:58:39;16.80;99.90
9790;DHT22;4934;50.852;8.098;2023-04-28T14:01:05;17.10;99.90
9790;DHT22;4934;50.852;8.098;2023-04-28T14:03:31;17.40;99.90
9790;DHT22;4934;50.852;8.098;2023-04-28T14:05:57;17.50;99.90
9790;DHT22;4934;50.852;8.098;2023-04-28T14:08:23;17.50;99.90
9790;DHT22;4934;50.852;8.098;2023-04-28T14:10:50;17.50;99.90
9790;DHT22;4934;50.852;8.098;2023-04-28T14:13:16;17.00;99.90
9790;DHT22;4934;50.852;8.098;2023-04-28T14:15:42;17.50;99.90
9790;DHT22;4934;50.852;8.098;2023-04-28T14:18:09;17.60;99.90
9790;DHT22;4934;50.852;8.098;2023-04-28T14:20:36;17.70;99.90
9790;DHT22;4934;50.852;8.098;2023-04-28T14:23:02;18.00;99.90
9790;DHT22;4934;50.852;8.098;2023-04-28T14:25:28;18.40;99.90
9790;DHT22;4934;50.852;8.098;2023-04-28T14:27:54;18.50;99.90
9790;DHT22;4934;50.852;8.098;2023-04-28T14:30:20;18.30;99.90
9790;DHT22;4934;50.852;8.098;2023-04-28T14:32:47;18.00;99.90
9790;DHT22;4934;50.852;8.098;2023-04-28T14:35:14;17.70;99.90
9790;DHT22;4934;50.852;8.098;2023-04-28T14:37:40;17.70;99.90
9790;DHT22;4934;50.852;8.098;2023-04-28T14:40:06;17.70;99.90
9790;DHT22;4934;50.852;8.098;2023-04-28T14:42:34;18.00;99.90
9790;DHT22;4934;50.852;8.098;2023-04-28T14:45:05;18.10;99.90
9790;DHT22;4934;50.852;8.098;2023-04-28T14:47:32;18.10;99.90
9790;DHT22;4934;50.852;8.098;2023-04-28T14:49:59;18.30;99.90
9790;DHT22;4934;50.852;8.098;2023-04-28T14:52:25;18.30;99.90
9790;DHT22;4934;50.852;8.098;2023-04-28T14:54:55;18.50;99.90
9790;DHT22;4934;50.852;8.098;2023-04-28T14:57:21;18.50;99.90
9790;DHT22;4934;50.852;8.098;2023-04-28T14:59:47;18.50;99.90
9790;DHT22;4934;50.852;8.098;2023-04-28T15:02:13;18.70;99.90
9790;DHT22;4934;50.852;8.098;2023-04-28T15:04:39;18.80;99.90
9790;DHT22;4934;50.852;8.098;2023-04-28T15:07:05;18.90;99.90
9790;DHT22;4934;50.852;8.098;2023-04-28T15:09:33;19.20;99.90
9790;DHT22;4934;50.852;8.098;2023-04-28T15:12:00;19.30;99.90
9790;DHT22;4934;50.852;8.098;2023-04-28T15:14:27;19.10;99.90
9790;DHT22;4934;50.852;8.098;2023-04-28T15:16:52;18.90;99.90
9790;DHT22;4934;50.852;8.098;2023-04-28T15:19:19;18.80;99.90
9790;DHT22;4934;50.852;8.098;2023-04-28T15:21:45;18.80;99.90
9790;DHT22;4934;50.852;8.098;2023-04-28T15:24:10;18.70;99.90
9790;DHT22;4934;50.852;8.098;2023-04-28T15:26:36;18.70;99.90
9790;DHT22;4934;50.852;8.098;2023-04-28T15:29:02;18.50;99.90
9790;DHT22;4934;50.852;8.098;2023-04-28T15:31:27;18.30;99.90
9790;DHT22;4934;50.852;8.098;2023-04-28T15:33:53;18.40;99.90
9790;DHT22;4934;50.852;8.098;2023-04-28T15:36:19;18.50;99.90
9790;DHT22;4934;50.852;8.098;2023-04-28T15:38:46;18.80;99.90
9790;DHT22;4934;50.852;8.098;2023-04-28T15:41:12;19.00;99.90
9790;DHT22;4934;50.852;8.098;2023-04-28T15:43:39;19.00;99.90
9790;DHT22;4934;50.852;8.098;2023-04-28T15:46:05;19.00;99.90
9790;DHT22;4934;50.852;8.098;2023-04-28T15:48:33;18.80;99.90
9790;DHT22;4934;50.852;8.098;2023-04-28T15:50:59;18.70;99.90
9790;DHT22;4934;50.852;8.098;2023-04-28T15:53:25;18.50;99.90
9790;DHT22;4934;50.852;8.098;2023-04-28T15:55:51;18.00;99.90
9790;DHT22;4934;50.852;8.098;2023-04-28T15:58:17;18.00;99.90
9790;DHT22;4934;50.852;8.098;2023-04-28T16:00:42;18.00;99.90
9790;DHT22;4934;50.852;8.098;2023-04-28T16:03:10;17.90;99.90
9790;DHT22;4934;50.852;8.098;2023-04-28T16:05:37;17.80;99.90
9790;DHT22;4934;50.852;8.098;2023-04-28T16:08:02;18.00;99.90
9790;DHT22;4934;50.852;8.098;2023-04-28T16:10:28;17.90;99.90
9790;DHT22;4934;50.852;8.098;2023-04-28T16:12:54;17.80;99.90
9790;DHT22;4934;50.852;8.098;2023-04-28T16:15:19;17.80;99.90
9790;DHT22;4934;50.852;8.098;2023-04-28T16:17:45;17.70;99.90
9790;DHT22;4934;50.852;8.098;2023-04-28T16:20:12;17.60;99.90
9790;DHT22;4934;50.852;8.098;2023-04-28T16:22:39;17.50;99.90
9790;DHT22;4934;50.852;8.098;2023-04-28T16:25:05;17.60;99.90
9790;DHT22;4934;50.852;8.098;2023-04-28T16:27:31;17.60;99.90
9790;DHT22;4934;50.852;8.098;2023-04-28T16:29:57;17.80;99.90